createdAt,value
2023-08-15T00:00:16.008Z,99292.19
2023-08-15T00:00:28.212Z,99292.19
2023-08-15T00:00:40.301Z,99285.09
2023-08-15T00:00:52.343Z,99293.88
2023-08-15T00:01:04.461Z,99284.09
2023-08-15T00:01:16.537Z,99286.88
2023-08-15T00:01:28.705Z,99282.44
2023-08-15T00:01:40.732Z,99285.94
2023-08-15T00:01:52.737Z,99284.09
2023-08-15T00:02:04.937Z,99284.25
2023-08-15T00:02:17.032Z,99278.94
2023-08-15T00:02:29.001Z,99286.88
2023-08-15T00:02:41.066Z,99291.38
2023-08-15T00:02:53.233Z,99281.75
2023-08-15T00:03:05.632Z,99275.59
2023-08-15T00:03:17.991Z,99273.94
2023-08-15T00:03:30.225Z,99279.09
2023-08-15T00:03:42.322Z,99280.19
2023-08-15T00:03:54.554Z,99285.38
2023-08-15T00:04:06.613Z,99287.06
2023-08-15T00:04:18.572Z,99286.88
2023-08-15T00:04:33.026Z,99281.59
2023-08-15T00:04:45.036Z,99276.13
2023-08-15T00:04:57.345Z,99275.31
2023-08-15T00:05:09.580Z,99273.34
2023-08-15T00:05:21.695Z,99280.31
2023-08-15T00:05:33.704Z,99276.69
2023-08-15T00:05:45.689Z,99282.00
2023-08-15T00:05:57.666Z,99283.69
2023-08-15T00:06:09.646Z,99272.06
2023-08-15T00:06:21.990Z,99281.72
2023-08-15T00:06:33.931Z,99276.41
2023-08-15T00:06:45.897Z,99279.06
2023-08-15T00:06:57.913Z,99280.72
2023-08-15T00:07:10.800Z,99274.44
2023-08-15T00:07:22.880Z,99270.81
2023-08-15T00:07:34.964Z,99283.09
2023-08-15T00:07:46.965Z,99276.13
2023-08-15T00:07:58.911Z,99274.28
2023-08-15T00:08:10.933Z,99276.25
2023-08-15T00:08:23.028Z,99277.13
2023-08-15T00:08:34.974Z,99276.94
2023-08-15T00:08:49.279Z,99273.31
2023-08-15T00:09:01.392Z,99274.16
2023-08-15T00:09:13.380Z,99274.16
2023-08-15T00:09:25.393Z,99282.13
2023-08-15T00:09:37.421Z,99279.47
2023-08-15T00:09:49.394Z,99274.97
2023-08-15T00:10:02.113Z,99279.31
2023-08-15T00:10:14.071Z,99278.50
2023-08-15T00:10:26.083Z,99277.50
2023-08-15T00:10:38.129Z,99275.53
2023-08-15T00:10:50.163Z,99277.22
2023-08-15T00:11:02.112Z,99271.03
2023-08-15T00:11:14.081Z,99273.56
2023-08-15T00:11:26.099Z,99274.41
2023-08-15T00:11:38.086Z,99274.41
2023-08-15T00:11:50.015Z,99267.28
2023-08-15T00:12:02.248Z,99269.94
2023-08-15T00:12:14.225Z,99269.94
2023-08-15T00:12:26.247Z,99275.25
2023-08-15T00:12:38.211Z,99269.25
2023-08-15T00:12:50.218Z,99263.78
2023-08-15T00:13:04.134Z,99270.91
2023-08-15T00:13:16.165Z,99264.78
2023-08-15T00:13:28.422Z,99271.91
2023-08-15T00:13:40.465Z,99264.09
2023-08-15T00:13:56.752Z,99270.22
2023-08-15T00:14:09.083Z,99269.38
2023-08-15T00:14:21.115Z,99263.25
2023-08-15T00:14:33.276Z,99265.91
2023-08-15T00:14:45.275Z,99261.88
2023-08-15T00:14:58.074Z,99265.50
2023-08-15T00:15:10.611Z,99264.34
2023-08-15T00:15:22.662Z,99265.22
2023-08-15T00:15:36.121Z,99256.56
2023-08-15T00:15:48.149Z,99272.50
2023-08-15T00:16:00.154Z,99257.66
2023-08-15T00:16:12.163Z,99264.81
2023-08-15T00:16:24.551Z,99265.81
2023-08-15T00:16:36.601Z,99265.25
2023-08-15T00:16:48.699Z,99264.38
2023-08-15T00:17:00.793Z,99270.00
2023-08-15T00:17:13.162Z,99266.34
2023-08-15T00:17:25.536Z,99266.34
2023-08-15T00:17:37.575Z,99261.91
2023-08-15T00:17:49.650Z,99262.72
2023-08-15T00:18:02.019Z,99261.72
2023-08-15T00:18:14.128Z,99266.91
2023-08-15T00:18:26.188Z,99263.28
2023-08-15T00:18:38.146Z,99260.50
2023-08-15T00:18:50.310Z,99262.97
2023-08-15T00:19:03.771Z,99270.13
2023-08-15T00:19:15.752Z,99264.81
2023-08-15T00:19:27.747Z,99261.31
2023-08-15T00:19:40.591Z,99262.28
2023-08-15T00:19:52.559Z,99273.06
2023-08-15T00:20:05.105Z,99262.47
2023-08-15T00:20:17.060Z,99269.56
2023-08-15T00:20:29.114Z,99266.06
2023-08-15T00:20:41.088Z,99263.41
2023-08-15T00:20:53.077Z,99270.56
2023-08-15T00:21:05.081Z,99262.72
2023-08-15T00:21:17.032Z,99268.88
2023-08-15T00:21:29.128Z,99266.34
2023-08-15T00:21:41.093Z,99267.34
2023-08-15T00:21:53.103Z,99265.66
2023-08-15T00:22:05.218Z,99264.97
2023-08-15T00:22:18.609Z,99266.94
2023-08-15T00:22:30.586Z,99265.50
2023-08-15T00:22:43.007Z,99262.75
2023-08-15T00:22:54.980Z,99267.22
2023-08-15T00:23:07.131Z,99271.69
2023-08-15T00:23:19.120Z,99263.84
2023-08-15T00:23:31.057Z,99269.16
2023-08-15T00:23:43.005Z,99271.97
2023-08-15T00:23:55.288Z,99265.81
2023-08-15T00:24:07.425Z,99267.78
2023-08-15T00:24:19.415Z,99265.13
2023-08-15T00:24:31.447Z,99262.47
2023-08-15T00:24:43.462Z,99264.44
2023-08-15T00:24:55.426Z,99264.44
2023-08-15T00:25:07.696Z,99267.22
2023-08-15T00:25:19.768Z,99265.56
2023-08-15T00:25:31.778Z,99265.56
2023-08-15T00:25:43.840Z,99263.06
2023-08-15T00:25:55.836Z,99269.31
2023-08-15T00:26:07.818Z,99262.34
2023-08-15T00:26:19.793Z,99265.84
2023-08-15T00:26:32.052Z,99264.31
2023-08-15T00:26:44.036Z,99261.66
2023-08-15T00:26:56.025Z,99266.09
2023-08-15T00:27:08.001Z,99263.63
2023-08-15T00:27:20.115Z,99258.44
2023-08-15T00:27:32.354Z,99263.06
2023-08-15T00:27:44.374Z,99264.19
2023-08-15T00:27:56.391Z,99263.34
2023-08-15T00:28:08.345Z,99259.16
2023-08-15T00:28:20.353Z,99258.47
2023-08-15T00:28:32.306Z,99261.41
2023-08-15T00:28:44.323Z,99263.06
2023-08-15T00:28:56.319Z,99263.06
2023-08-15T00:29:08.344Z,99256.13
2023-08-15T00:29:20.272Z,99263.22
2023-08-15T00:29:32.235Z,99259.72
2023-08-15T00:29:44.225Z,99259.72
2023-08-15T00:29:56.300Z,99261.41
2023-08-15T00:30:08.766Z,99259.72
2023-08-15T00:30:20.839Z,99266.72
2023-08-15T00:30:34.114Z,99264.06
2023-08-15T00:30:46.184Z,99255.13
2023-08-15T00:30:58.309Z,99264.06
2023-08-15T00:31:10.331Z,99263.06
2023-08-15T00:31:22.489Z,99256.94
2023-08-15T00:31:34.505Z,99258.59
2023-08-15T00:31:46.469Z,99257.78
2023-08-15T00:31:58.502Z,99263.38
2023-08-15T00:32:10.562Z,99265.88
2023-08-15T00:32:22.603Z,99256.38
2023-08-15T00:32:37.031Z,99258.91
2023-08-15T00:32:49.232Z,99260.72
2023-08-15T00:33:02.039Z,99259.72
2023-08-15T00:33:14.151Z,99258.75
2023-08-15T00:33:26.077Z,99263.22
2023-08-15T00:33:38.105Z,99259.72
2023-08-15T00:33:50.078Z,99259.72
2023-08-15T00:34:02.151Z,99254.41
2023-08-15T00:34:14.107Z,99259.72
2023-08-15T00:34:26.124Z,99258.75
2023-08-15T00:34:38.107Z,99253.47
2023-08-15T00:34:50.042Z,99256.13
2023-08-15T00:35:05.562Z,99262.25
2023-08-15T00:35:17.535Z,99261.56
2023-08-15T00:35:29.517Z,99259.88
2023-08-15T00:35:43.837Z,99260.72
2023-08-15T00:35:55.865Z,99266.03
2023-08-15T00:36:08.276Z,99263.38
2023-08-15T00:36:20.249Z,99258.06
2023-08-15T00:36:32.214Z,99261.41
2023-08-15T00:36:44.171Z,99258.75
2023-08-15T00:36:56.145Z,99262.25
2023-08-15T00:37:08.097Z,99263.06
2023-08-15T00:37:20.371Z,99255.13
2023-08-15T00:37:33.063Z,99261.13
2023-08-15T00:37:45.118Z,99261.94
2023-08-15T00:37:57.335Z,99258.59
2023-08-15T00:38:09.303Z,99256.63
2023-08-15T00:38:21.308Z,99262.63
2023-08-15T00:38:33.324Z,99266.97
2023-08-15T00:38:45.382Z,99265.16
2023-08-15T00:38:57.446Z,99264.19
2023-08-15T00:39:09.449Z,99267.53
2023-08-15T00:39:21.457Z,99260.28
2023-08-15T00:39:33.386Z,99265.59
2023-08-15T00:39:45.356Z,99262.94
2023-08-15T00:39:57.373Z,99267.25
2023-08-15T00:40:09.949Z,99268.06
2023-08-15T00:40:21.918Z,99267.94
2023-08-15T00:40:34.000Z,99265.97
2023-08-15T00:40:45.989Z,99263.47
2023-08-15T00:40:58.012Z,99266.09
2023-08-15T00:41:10.572Z,99271.28
2023-08-15T00:41:22.503Z,99270.31
2023-08-15T00:41:34.432Z,99269.47
2023-08-15T00:41:46.422Z,99274.63
2023-08-15T00:41:58.475Z,99273.66
2023-08-15T00:42:10.471Z,99264.88
2023-08-15T00:42:22.506Z,99268.34
2023-08-15T00:42:34.492Z,99268.34
2023-08-15T00:42:46.452Z,99268.34
2023-08-15T00:42:58.446Z,99266.66
2023-08-15T00:43:16.125Z,99268.34
2023-08-15T00:43:28.056Z,99269.47
2023-08-15T00:43:40.037Z,99268.63
2023-08-15T00:43:51.998Z,99268.63
2023-08-15T00:44:04.262Z,99265.28
2023-08-15T00:44:16.209Z,99262.75
2023-08-15T00:44:28.160Z,99269.19
2023-08-15T00:44:43.735Z,99273.81
2023-08-15T00:44:55.735Z,99268.50
2023-08-15T00:45:08.190Z,99266.16
2023-08-15T00:45:20.271Z,99266.28
2023-08-15T00:45:33.654Z,99262.81
2023-08-15T00:45:45.946Z,99268.81
2023-08-15T00:46:00.832Z,99267.81
2023-08-15T00:46:13.033Z,99273.94
2023-08-15T00:46:26.620Z,99269.50
2023-08-15T00:46:39.282Z,99268.63
2023-08-15T00:46:51.461Z,99265.84
2023-08-15T00:47:03.665Z,99262.50
2023-08-15T00:47:15.820Z,99263.50
2023-08-15T00:47:28.465Z,99268.81
2023-08-15T00:47:40.994Z,99263.34
2023-08-15T00:47:53.125Z,99266.00
2023-08-15T00:48:07.300Z,99263.19
2023-08-15T00:48:21.128Z,99259.72
2023-08-15T00:48:34.005Z,99259.72
2023-08-15T00:48:46.286Z,99266.69
2023-08-15T00:48:59.358Z,99256.94
2023-08-15T00:49:11.575Z,99252.44
2023-08-15T00:49:23.686Z,99256.94
2023-08-15T00:49:35.799Z,99255.94
2023-08-15T00:49:47.864Z,99255.94
2023-08-15T00:50:01.082Z,99254.97
2023-08-15T00:50:13.472Z,99260.28
2023-08-15T00:50:25.859Z,99257.44
2023-08-15T00:50:39.558Z,99260.97
2023-08-15T00:50:51.645Z,99259.00
2023-08-15T00:51:03.966Z,99261.50
2023-08-15T00:51:17.734Z,99259.69
2023-08-15T00:51:29.760Z,99258.00
2023-08-15T00:51:42.044Z,99260.66
2023-08-15T00:51:54.187Z,99258.00
2023-08-15T00:52:07.144Z,99252.72
2023-08-15T00:52:19.285Z,99254.41
2023-08-15T00:52:31.504Z,99254.41
2023-08-15T00:52:43.649Z,99259.84
2023-08-15T00:52:56.351Z,99260.66
2023-08-15T00:53:08.980Z,99258.00
2023-08-15T00:53:21.018Z,99253.53
2023-08-15T00:53:35.181Z,99252.72
2023-08-15T00:53:48.286Z,99257.19
2023-08-15T00:54:01.272Z,99258.00
2023-08-15T00:54:13.809Z,99253.53
2023-08-15T00:54:25.858Z,99256.19
2023-08-15T00:54:38.541Z,99249.09
2023-08-15T00:54:51.603Z,99256.06
2023-08-15T00:55:04.199Z,99252.44
2023-08-15T00:55:18.538Z,99253.25
2023-08-15T00:55:31.626Z,99259.41
2023-08-15T00:55:45.235Z,99248.78
2023-08-15T00:55:58.954Z,99253.00
2023-08-15T00:56:11.650Z,99250.47
2023-08-15T00:56:23.769Z,99257.44
2023-08-15T00:56:36.201Z,99255.78
2023-08-15T00:56:48.194Z,99244.16
2023-08-15T00:57:00.589Z,99245.84
2023-08-15T00:57:12.655Z,99254.78
2023-08-15T00:57:24.718Z,99252.44
2023-08-15T00:57:37.270Z,99247.13
2023-08-15T00:57:49.270Z,99243.47
2023-08-15T00:58:01.357Z,99248.09
2023-08-15T00:58:13.492Z,99251.59
2023-08-15T00:58:26.014Z,99242.66
2023-08-15T00:58:38.274Z,99251.44
2023-08-15T00:58:50.567Z,99247.97
2023-08-15T00:59:03.758Z,99251.44
2023-08-15T00:59:16.102Z,99240.81
2023-08-15T00:59:28.123Z,99253.25
2023-08-15T00:59:43.443Z,99250.47
2023-08-15T00:59:55.678Z,99250.47
2023-08-15T01:00:08.271Z,99254.09
2023-08-15T01:00:20.338Z,99242.66
2023-08-15T01:00:32.689Z,99254.09
2023-08-15T01:00:44.738Z,99251.44
2023-08-15T01:00:57.345Z,99249.78
2023-08-15T01:01:18.649Z,99246.44
2023-08-15T01:01:32.189Z,99249.09
2023-08-15T01:01:44.609Z,99247.41
2023-08-15T01:01:57.383Z,99247.69
2023-08-15T01:02:09.587Z,99251.31
2023-08-15T01:02:21.714Z,99248.53
2023-08-15T01:02:34.300Z,99249.34
2023-08-15T01:02:46.404Z,99251.03
2023-08-15T01:02:58.710Z,99243.22
2023-08-15T01:03:11.324Z,99245.75
2023-08-15T01:03:23.854Z,99253.69
2023-08-15T01:03:37.289Z,99251.03
2023-08-15T01:03:50.417Z,99247.53
2023-08-15T01:04:02.940Z,99249.34
2023-08-15T01:04:15.840Z,99253.00
2023-08-15T01:04:27.910Z,99250.34
2023-08-15T01:04:41.882Z,99244.34
2023-08-15T01:04:54.113Z,99250.63
2023-08-15T01:05:06.597Z,99248.28
2023-08-15T01:05:20.734Z,99244.94
2023-08-15T01:05:33.099Z,99253.03
2023-08-15T01:05:45.410Z,99251.34
2023-08-15T01:05:57.851Z,99250.50
2023-08-15T01:06:10.345Z,99254.16
2023-08-15T01:06:22.392Z,99249.81
2023-08-15T01:06:34.340Z,99251.63
2023-08-15T01:06:46.275Z,99249.69
2023-08-15T01:06:58.958Z,99250.50
2023-08-15T01:07:11.370Z,99254.84
2023-08-15T01:07:23.607Z,99251.19
2023-08-15T01:07:36.105Z,99250.25
2023-08-15T01:07:48.625Z,99251.91
2023-08-15T01:08:01.120Z,99248.28
2023-08-15T01:08:13.181Z,99245.75
2023-08-15T01:08:25.136Z,99245.75
2023-08-15T01:08:37.093Z,99246.88
2023-08-15T01:08:49.368Z,99257.50
2023-08-15T01:09:02.098Z,99250.50
2023-08-15T01:09:14.399Z,99254.00
2023-08-15T01:09:26.359Z,99249.69
2023-08-15T01:09:38.930Z,99250.50
2023-08-15T01:09:50.912Z,99247.84
2023-08-15T01:10:02.893Z,99254.84
2023-08-15T01:10:15.000Z,99256.63
2023-08-15T01:10:27.176Z,99253.84
2023-08-15T01:10:40.921Z,99254.84
2023-08-15T01:10:52.933Z,99249.53
2023-08-15T01:11:05.420Z,99251.19
2023-08-15T01:11:17.441Z,99252.19
2023-08-15T01:11:36.620Z,99261.81
2023-08-15T01:12:16.047Z,99248.41
2023-08-15T01:12:58.953Z,99257.91
2023-08-15T01:13:15.162Z,99258.72
2023-08-15T01:13:33.014Z,99251.75
2023-08-15T01:13:54.465Z,99256.06
2023-08-15T01:14:13.306Z,99254.28
2023-08-15T01:14:33.773Z,99258.59
2023-08-15T01:14:56.274Z,99255.94
2023-08-15T01:15:17.998Z,99249.66
2023-08-15T01:15:32.774Z,99250.34
2023-08-15T01:15:50.716Z,99255.50
2023-08-15T01:16:08.324Z,99252.00
2023-08-15T01:16:29.269Z,99256.34
2023-08-15T01:16:45.169Z,99259.00
2023-08-15T01:16:57.923Z,99249.34
2023-08-15T01:17:16.780Z,99261.66
2023-08-15T01:17:59.523Z,99256.34
2023-08-15T01:19:16.488Z,99249.25
2023-08-15T01:19:34.523Z,99248.53
2023-08-15T01:19:49.748Z,99254.00
2023-08-15T01:20:08.009Z,99247.84
2023-08-15T01:20:27.450Z,99249.81
2023-08-15T01:20:40.449Z,99248.16
2023-08-15T01:20:55.713Z,99249.94
2023-08-15T01:21:08.548Z,99255.25
2023-08-15T01:21:26.287Z,99249.13
2023-08-15T01:21:44.639Z,99248.28
2023-08-15T01:22:00.137Z,99250.81
2023-08-15T01:22:16.935Z,99246.47
2023-08-15T01:22:31.969Z,99247.16
2023-08-15T01:22:48.033Z,99240.19
2023-08-15T01:23:07.143Z,99242.84
2023-08-15T01:23:25.100Z,99243.81
2023-08-15T01:23:43.409Z,99244.63
2023-08-15T01:23:57.129Z,99248.16
2023-08-15T01:24:09.174Z,99245.50
2023-08-15T01:24:21.526Z,99248.16
2023-08-15T01:24:33.898Z,99248.16
2023-08-15T01:24:46.360Z,99245.50
2023-08-15T01:24:59.169Z,99245.34
2023-08-15T01:25:11.115Z,99248.84
2023-08-15T01:25:23.095Z,99248.00
2023-08-15T01:25:42.410Z,99248.84
2023-08-15T01:25:58.523Z,99244.38
2023-08-15T01:26:10.810Z,99250.50
2023-08-15T01:26:22.842Z,99247.16
2023-08-15T01:26:35.645Z,99245.50
2023-08-15T01:26:47.659Z,99242.84
2023-08-15T01:26:59.625Z,99247.16
2023-08-15T01:27:11.608Z,99243.53
2023-08-15T01:27:23.833Z,99241.84
2023-08-15T01:27:35.952Z,99250.81
2023-08-15T01:27:47.965Z,99242.84
2023-08-15T01:28:00.778Z,99245.50
2023-08-15T01:28:14.067Z,99247.28
2023-08-15T01:28:26.021Z,99249.13
2023-08-15T01:28:39.984Z,99249.13
2023-08-15T01:28:51.923Z,99252.59
2023-08-15T01:29:04.592Z,99254.41
2023-08-15T01:29:16.584Z,99252.75
2023-08-15T01:29:28.810Z,99251.91
2023-08-15T01:29:40.753Z,99245.78
2023-08-15T01:29:52.749Z,99254.72
2023-08-15T01:30:05.820Z,99257.50
2023-08-15T01:30:19.589Z,99251.38
2023-08-15T01:30:31.718Z,99257.50
2023-08-15T01:30:49.847Z,99251.38
2023-08-15T01:31:33.643Z,99251.38
2023-08-15T01:31:56.049Z,99255.25
2023-08-15T01:32:52.988Z,99255.00
2023-08-15T01:33:16.560Z,99254.16
2023-08-15T01:33:38.671Z,99254.16
2023-08-15T01:34:02.066Z,99254.44
2023-08-15T01:34:21.957Z,99248.44
2023-08-15T01:34:41.917Z,99252.78
2023-08-15T01:35:20.500Z,99254.59
2023-08-15T01:35:38.986Z,99249.44
2023-08-15T01:36:01.134Z,99249.44
2023-08-15T01:36:23.941Z,99253.03
2023-08-15T01:36:43.205Z,99249.44
2023-08-15T01:37:04.299Z,99246.78
2023-08-15T01:37:30.487Z,99245.09
2023-08-15T01:37:45.892Z,99252.22
2023-08-15T01:38:08.341Z,99247.75
2023-08-15T01:38:27.615Z,99247.75
2023-08-15T01:38:43.106Z,99245.94
2023-08-15T01:39:01.713Z,99243.31
2023-08-15T01:39:19.032Z,99245.25
2023-08-15T01:39:32.198Z,99247.75
2023-08-15T01:39:48.269Z,99246.78
2023-08-15T01:40:03.275Z,99249.28
2023-08-15T01:40:18.603Z,99252.78
2023-08-15T01:40:35.001Z,99252.78
2023-08-15T01:40:51.172Z,99254.44
2023-08-15T01:41:06.799Z,99249.13
2023-08-15T01:41:21.846Z,99247.47
2023-08-15T01:41:38.853Z,99256.41
2023-08-15T01:41:53.786Z,99248.59
2023-08-15T01:42:07.409Z,99253.91
2023-08-15T01:42:21.979Z,99249.69
2023-08-15T01:42:35.123Z,99248.03
2023-08-15T01:42:50.466Z,99252.50
2023-08-15T01:43:03.858Z,99255.28
2023-08-15T01:43:17.727Z,99250.25
2023-08-15T01:43:31.148Z,99255.56
2023-08-15T01:43:45.132Z,99247.91
2023-08-15T01:43:57.378Z,99245.25
2023-08-15T01:44:12.664Z,99248.88
2023-08-15T01:44:26.109Z,99247.22
2023-08-15T01:44:38.633Z,99251.53
2023-08-15T01:44:51.483Z,99250.56
2023-08-15T01:45:04.367Z,99249.56
2023-08-15T01:45:17.696Z,99250.41
2023-08-15T01:45:30.784Z,99253.91
2023-08-15T01:45:43.216Z,99255.56
2023-08-15T01:45:55.982Z,99255.56
2023-08-15T01:46:08.850Z,99255.56
2023-08-15T01:46:21.064Z,99253.78
2023-08-15T01:46:33.479Z,99259.91
2023-08-15T01:46:47.927Z,99260.88
2023-08-15T01:47:00.482Z,99260.16
2023-08-15T01:47:12.567Z,99259.34
2023-08-15T01:47:24.591Z,99255.84
2023-08-15T01:47:37.369Z,99257.81
2023-08-15T01:47:50.478Z,99260.59
2023-08-15T01:48:02.582Z,99258.06
2023-08-15T01:48:14.625Z,99261.00
2023-08-15T01:48:26.536Z,99257.47
2023-08-15T01:48:43.052Z,99254.16
2023-08-15T01:48:55.053Z,99255.25
2023-08-15T01:49:07.018Z,99256.22
2023-08-15T01:49:19.008Z,99251.63
2023-08-15T01:49:30.948Z,99254.16
2023-08-15T01:49:43.073Z,99250.50
2023-08-15T01:49:55.072Z,99253.84
2023-08-15T01:50:07.697Z,99256.50
2023-08-15T01:50:19.696Z,99248.28
2023-08-15T01:50:31.677Z,99249.13
2023-08-15T01:50:43.725Z,99249.00
2023-08-15T01:50:55.861Z,99253.31
2023-08-15T01:51:08.402Z,99250.53
2023-08-15T01:51:20.388Z,99253.03
2023-08-15T01:51:32.381Z,99249.69
2023-08-15T01:51:44.412Z,99246.03
2023-08-15T01:51:58.209Z,99253.03
2023-08-15T01:52:10.321Z,99249.41
2023-08-15T01:52:22.329Z,99256.41
2023-08-15T01:52:34.327Z,99250.25
2023-08-15T01:52:46.350Z,99251.13
2023-08-15T01:52:58.383Z,99246.50
2023-08-15T01:53:10.347Z,99250.81
2023-08-15T01:53:22.410Z,99247.22
2023-08-15T01:53:36.009Z,99250.81
2023-08-15T01:53:48.029Z,99257.13
2023-08-15T01:53:59.995Z,99251.13
2023-08-15T01:54:11.934Z,99254.47
2023-08-15T01:54:23.983Z,99251.81
2023-08-15T01:54:35.967Z,99252.50
2023-08-15T01:54:47.914Z,99252.50
2023-08-15T01:54:59.887Z,99252.50
2023-08-15T01:55:12.139Z,99254.16
2023-08-15T01:55:24.162Z,99254.16
2023-08-15T01:55:36.099Z,99252.34
2023-08-15T01:55:48.180Z,99251.38
2023-08-15T01:56:00.099Z,99254.88
2023-08-15T01:56:14.084Z,99252.22
2023-08-15T01:56:26.129Z,99251.38
2023-08-15T01:56:38.130Z,99255.69
2023-08-15T01:56:50.076Z,99253.91
2023-08-15T01:57:02.051Z,99255.56
2023-08-15T01:57:13.988Z,99260.88
2023-08-15T01:57:25.948Z,99260.88
2023-08-15T01:57:37.893Z,99253.03
2023-08-15T01:57:49.813Z,99256.56
2023-08-15T01:58:01.810Z,99266.16
2023-08-15T01:58:13.737Z,99262.56
2023-08-15T01:58:25.728Z,99257.25
2023-08-15T01:58:37.713Z,99264.22
2023-08-15T01:58:49.680Z,99262.56
2023-08-15T01:59:01.669Z,99260.59
2023-08-15T01:59:13.629Z,99264.22
2023-08-15T01:59:25.616Z,99263.25
2023-08-15T01:59:37.622Z,99259.78
2023-08-15T01:59:49.560Z,99264.22
2023-08-15T02:00:01.507Z,99264.22
2023-08-15T02:00:13.714Z,99261.44
2023-08-15T02:00:25.760Z,99264.91
2023-08-15T02:00:37.709Z,99260.59
2023-08-15T02:00:49.951Z,99266.03
2023-08-15T02:01:05.135Z,99257.94
2023-08-15T02:01:17.207Z,99267.72
2023-08-15T02:01:29.193Z,99265.22
2023-08-15T02:01:41.238Z,99270.38
2023-08-15T02:01:53.234Z,99270.38
2023-08-15T02:02:07.819Z,99268.69
2023-08-15T02:02:19.995Z,99271.22
2023-08-15T02:02:32.054Z,99268.41
2023-08-15T02:02:44.164Z,99263.94
2023-08-15T02:02:56.192Z,99264.91
2023-08-15T02:03:08.186Z,99266.72
2023-08-15T02:03:20.217Z,99266.72
2023-08-15T02:03:32.221Z,99263.38
2023-08-15T02:03:44.202Z,99265.22
2023-08-15T02:03:56.232Z,99263.38
2023-08-15T02:04:08.206Z,99263.38
2023-08-15T02:04:20.210Z,99263.50
2023-08-15T02:04:32.158Z,99264.50
2023-08-15T02:04:44.136Z,99264.50
2023-08-15T02:04:56.751Z,99263.81
2023-08-15T02:05:08.969Z,99261.16
2023-08-15T02:05:21.120Z,99265.47
2023-08-15T02:05:35.614Z,99257.66
2023-08-15T02:05:48.140Z,99259.47
2023-08-15T02:06:00.249Z,99257.53
2023-08-15T02:06:12.309Z,99257.53
2023-08-15T02:06:24.298Z,99258.22
2023-08-15T02:06:36.213Z,99265.34
2023-08-15T02:06:48.151Z,99252.91
2023-08-15T02:07:00.192Z,99259.22
2023-08-15T02:07:12.184Z,99260.88
2023-08-15T02:07:24.177Z,99258.22
2023-08-15T02:07:36.105Z,99254.59
2023-08-15T02:07:48.032Z,99252.91
2023-08-15T02:08:00.263Z,99252.91
2023-08-15T02:08:12.206Z,99253.59
2023-08-15T02:08:24.228Z,99259.59
2023-08-15T02:08:36.192Z,99256.13
2023-08-15T02:08:48.140Z,99256.97
2023-08-15T02:09:00.159Z,99251.66
2023-08-15T02:09:12.100Z,99250.81
2023-08-15T02:09:24.145Z,99256.97
2023-08-15T02:09:36.103Z,99253.34
2023-08-15T02:09:48.083Z,99253.34
2023-08-15T02:10:00.288Z,99250.56
2023-08-15T02:10:12.231Z,99255.00
2023-08-15T02:10:24.279Z,99252.34
2023-08-15T02:10:36.259Z,99249.69
2023-08-15T02:10:48.279Z,99255.00
2023-08-15T02:11:00.273Z,99255.00
2023-08-15T02:11:12.351Z,99251.38
2023-08-15T02:11:24.364Z,99248.75
2023-08-15T02:11:36.357Z,99252.22
2023-08-15T02:11:48.368Z,99258.34
2023-08-15T02:12:00.293Z,99251.38
2023-08-15T02:12:12.203Z,99256.00
2023-08-15T02:12:24.205Z,99252.34
2023-08-15T02:12:36.220Z,99253.34
2023-08-15T02:12:48.244Z,99255.16
2023-08-15T02:13:00.229Z,99256.97
2023-08-15T02:13:12.213Z,99256.13
2023-08-15T02:13:24.168Z,99260.59
2023-08-15T02:13:36.128Z,99259.78
2023-08-15T02:13:48.383Z,99255.56
2023-08-15T02:14:00.309Z,99255.56
2023-08-15T02:14:12.327Z,99258.34
2023-08-15T02:14:24.287Z,99264.50
2023-08-15T02:14:36.241Z,99257.66
2023-08-15T02:14:48.231Z,99264.78
2023-08-15T02:15:00.202Z,99257.13
2023-08-15T02:15:13.120Z,99262.56
2023-08-15T02:15:25.165Z,99261.72
2023-08-15T02:15:37.159Z,99259.16
2023-08-15T02:15:49.192Z,99265.59
2023-08-15T02:16:02.206Z,99265.84
2023-08-15T02:16:14.286Z,99259.72
2023-08-15T02:16:26.290Z,99264.19
2023-08-15T02:16:38.282Z,99257.22
2023-08-15T02:16:50.257Z,99260.84
2023-08-15T02:17:02.248Z,99260.00
2023-08-15T02:17:14.448Z,99256.38
2023-08-15T02:17:38.170Z,99260.00
2023-08-15T02:17:50.173Z,99261.56
2023-08-15T02:18:02.197Z,99262.38
2023-08-15T02:18:14.211Z,99253.59
2023-08-15T02:18:28.365Z,99256.94
2023-08-15T02:18:42.281Z,99260.28
2023-08-15T02:18:54.702Z,99261.13
2023-08-15T02:19:06.770Z,99258.59
2023-08-15T02:19:18.764Z,99269.22
2023-08-15T02:19:30.730Z,99258.59
2023-08-15T02:19:42.882Z,99256.66
2023-08-15T02:19:54.936Z,99255.00
2023-08-15T02:20:07.422Z,99260.28
2023-08-15T02:20:19.605Z,99261.94
2023-08-15T02:20:31.564Z,99256.66
2023-08-15T02:20:43.580Z,99261.94
2023-08-15T02:20:55.758Z,99262.09
2023-08-15T02:21:07.812Z,99261.94
2023-08-15T02:21:19.859Z,99258.34
2023-08-15T02:21:31.918Z,99265.31
2023-08-15T02:21:43.887Z,99260.00
2023-08-15T02:21:55.933Z,99259.06
2023-08-15T02:22:08.159Z,99262.56
2023-08-15T02:22:20.329Z,99263.38
2023-08-15T02:22:32.637Z,99260.84
2023-08-15T02:22:44.990Z,99256.41
2023-08-15T02:22:57.002Z,99267.03
2023-08-15T02:23:09.036Z,99258.34
2023-08-15T02:23:21.331Z,99267.13
2023-08-15T02:23:33.264Z,99258.47
2023-08-15T02:23:45.210Z,99257.91
2023-08-15T02:23:57.174Z,99259.84
2023-08-15T02:24:09.177Z,99256.50
2023-08-15T02:24:21.221Z,99261.81
2023-08-15T02:24:33.180Z,99254.84
2023-08-15T02:24:45.137Z,99254.84
2023-08-15T02:24:57.137Z,99256.50
2023-08-15T02:25:09.274Z,99258.34
2023-08-15T02:25:21.366Z,99255.81
2023-08-15T02:25:33.377Z,99257.50
2023-08-15T02:25:45.365Z,99253.84
2023-08-15T02:25:57.334Z,99256.50
2023-08-15T02:26:09.283Z,99254.44
2023-08-15T02:26:21.320Z,99252.59
2023-08-15T02:26:33.526Z,99255.25
2023-08-15T02:26:45.504Z,99251.66
2023-08-15T02:26:57.493Z,99250.66
2023-08-15T02:27:09.592Z,99254.13
2023-08-15T02:27:21.804Z,99245.22
2023-08-15T02:27:34.014Z,99253.31
2023-08-15T02:27:45.981Z,99253.31
2023-08-15T02:27:57.947Z,99253.31
2023-08-15T02:28:09.916Z,99246.34
2023-08-15T02:28:22.074Z,99251.66
2023-08-15T02:28:34.166Z,99248.84
2023-08-15T02:28:46.128Z,99254.28
2023-08-15T02:28:58.102Z,99255.00
2023-08-15T02:29:10.026Z,99246.03
2023-08-15T02:29:22.071Z,99253.03
2023-08-15T02:29:34.076Z,99249.53
2023-08-15T02:29:46.092Z,99250.25
2023-08-15T02:29:58.111Z,99246.66
2023-08-15T02:30:10.472Z,99248.47
2023-08-15T02:30:22.389Z,99248.47
2023-08-15T02:30:38.237Z,99245.81
2023-08-15T02:30:50.301Z,99245.81
2023-08-15T02:31:05.982Z,99241.34
2023-08-15T02:31:18.190Z,99242.03
2023-08-15T02:31:31.628Z,99248.03
2023-08-15T02:31:45.029Z,99240.91
2023-08-15T02:31:56.948Z,99244.41
2023-08-15T02:32:08.941Z,99239.94
2023-08-15T02:32:21.000Z,99241.59
2023-08-15T02:32:33.223Z,99246.91
2023-08-15T02:32:45.493Z,99241.59
2023-08-15T02:32:57.601Z,99244.13
2023-08-15T02:33:09.637Z,99233.53
2023-08-15T02:33:21.712Z,99238.00
2023-08-15T02:33:34.111Z,99245.94
2023-08-15T02:33:46.113Z,99240.66
2023-08-15T02:33:58.032Z,99244.97
2023-08-15T02:34:10.008Z,99248.47
2023-08-15T02:34:22.002Z,99246.66
2023-08-15T02:34:33.993Z,99241.34
2023-08-15T02:34:46.012Z,99238.56
2023-08-15T02:34:57.967Z,99242.03
2023-08-15T02:35:10.168Z,99248.16
2023-08-15T02:35:22.131Z,99245.38
2023-08-15T02:35:34.540Z,99240.09